Time;durP1;ratioP1;P1;durP2;ratioP2;P2;SDS_P1;SDS_P2;PMS_P1;PMS_P2;Temp;Humidity;BMP_temperature;BMP_pressure;BME280_temperature;BME280_humidity;BME280_pressure;Samples;Min_cycle;Max_cycle;Signal;HPM_P1;HPM_P2
2022/05/19 00:00:35;;;;;;;5.70;2.75;;;;;;;16.55;73.04;100535.41;5030367;28;20040;-85
2022/05/19 00:03:01;;;;;;;7.93;3.05;;;;;;;16.61;73.15;100542.78;5034444;28;20048;-85
2022/05/19 00:05:27;;;;;;;8.57;3.40;;;;;;;16.60;72.72;100539.28;5033623;28;20061;-85
2022/05/19 00:07:52;;;;;;;7.18;3.13;;;;;;;16.52;72.26;100546.28;5034284;28;20431;-85
2022/05/19 00:10:18;;;;;;;9.73;4.13;;;;;;;16.54;73.52;100550.44;5032573;28;20026;-85
2022/05/19 00:12:44;;;;;;;7.65;3.55;;;;;;;16.47;73.14;100546.72;5034346;28;20029;-85
2022/05/19 00:15:11;;;;;;;10.30;2.92;;;;;;;16.33;72.83;100537.34;5030938;28;20036;-85
2022/05/19 00:17:37;;;;;;;7.18;2.80;;;;;;;16.35;73.39;100547.78;5034477;28;20025;-85
2022/05/19 00:20:03;;;;;;;7.85;3.33;;;;;;;16.22;73.47;100554.19;5032088;28;20029;-85
2022/05/19 00:22:28;;;;;;;5.40;2.95;;;;;;;16.10;73.25;100557.94;5034096;28;20505;-85
2022/05/19 00:24:54;;;;;;;7.70;3.20;;;;;;;16.19;73.31;100551.84;5033285;28;20029;-85
2022/05/19 00:27:19;;;;;;;4.63;2.92;;;;;;;16.01;73.61;100550.81;5048623;28;20022;-85
2022/05/19 00:29:45;;;;;;;9.40;3.55;;;;;;;15.84;72.99;100542.56;5028493;28;20476;-85
2022/05/19 00:32:10;;;;;;;7.43;3.30;;;;;;;15.81;73.08;100550.75;5032166;28;20053;-85
2022/05/19 00:34:35;;;;;;;4.45;3.10;;;;;;;15.90;72.96;100554.41;5049279;28;20041;-85
2022/05/19 00:37:02;;;;;;;6.03;3.63;;;;;;;15.74;73.44;100533.75;5032217;28;20017;-85
2022/05/19 00:39:29;;;;;;;6.35;3.75;;;;;;;15.68;73.97;100563.38;5030938;28;20029;-85
2022/05/19 00:44:40;;;;;;;8.95;4.68;;;;;;;15.57;75.32;100571.41;5015147;28;20413;-85
2022/05/19 00:47:11;;;;;;;7.78;4.88;;;;;;;15.81;73.98;100582.53;5033694;28;20040;-85
2022/05/19 00:49:40;;;;;;;9.00;5.27;;;;;;;15.89;73.94;100571.25;5030076;28;20072;-84
2022/05/19 00:52:15;;;;;;;11.25;7.03;;;;;;;15.76;75.05;100566.22;5030650;28;20052;-85
2022/05/19 00:54:44;;;;;;;9.82;7.05;;;;;;;15.92;74.37;100575.47;5031416;28;20037;-85
2022/05/19 00:57:23;;;;;;;12.65;8.27;;;;;;;15.81;75.07;100582.53;5013758;28;20612;-85
2022/05/19 01:00:03;;;;;;;11.13;7.35;;;;;;;15.95;74.93;100583.97;5030474;28;20095;-84
2022/05/19 01:02:37;;;;;;;11.88;7.32;;;;;;;16.01;75.44;100587.88;5030343;28;20096;-85
2022/05/19 01:05:08;;;;;;;12.80;6.55;;;;;;;16.11;75.10;100582.63;5033363;28;20029;-85
2022/05/19 01:08:03;;;;;;;10.70;6.68;;;;;;;16.13;75.23;100588.63;5032447;28;20109;-85
2022/05/19 01:10:28;;;;;;;15.18;6.72;;;;;;;16.08;74.64;100590.84;5033074;28;20087;-85
2022/05/19 01:12:54;;;;;;;14.70;8.27;;;;;;;16.08;73.98;100590.84;5030627;28;20029;-84
2022/05/19 01:15:21;;;;;;;12.40;7.95;;;;;;;16.10;74.33;100599.50;5030970;28;20029;-85
2022/05/19 01:17:47;;;;;;;15.88;9.35;;;;;;;16.03;74.21;100588.59;5031027;28;20033;-85
2022/05/19 01:20:20;;;;;;;17.80;9.55;;;;;;;16.00;75.33;100586.22;5033008;28;20538;-85
2022/05/19 01:22:54;;;;;;;17.10;9.77;;;;;;;16.12;75.03;100582.47;5031172;28;20557;-85
2022/05/19 01:25:46;;;;;;;17.27;10.45;;;;;;;15.96;74.77;100593.59;5031635;28;20078;-85
2022/05/19 01:28:11;;;;;;;13.60;8.73;;;;;;;16.00;74.99;100599.47;5029379;28;20028;-84
2022/05/19 01:30:38;;;;;;;14.07;9.13;;;;;;;16.09;75.00;100592.50;5031916;28;20033;-85
2022/05/19 01:33:04;;;;;;;11.77;8.95;;;;;;;16.13;74.35;100597.38;5030580;28;20034;-85
2022/05/19 01:35:33;;;;;;;19.60;8.57;;;;;;;16.11;74.11;100596.69;5032413;28;20537;-85
2022/05/19 01:38:00;;;;;;;12.93;8.63;;;;;;;16.11;74.25;100599.34;5048269;28;20497;-85
2022/05/19 01:40:37;;;;;;;8.68;6.75;;;;;;;16.19;74.96;100599.53;5030850;28;20075;-85
2022/05/19 01:43:27;;;;;;;11.25;7.43;;;;;;;16.28;74.19;100592.56;5047855;28;20022;-85
2022/05/19 01:46:29;;;;;;;12.57;7.88;;;;;;;16.28;74.79;100592.56;5031474;28;20067;-85
2022/05/19 01:49:00;;;;;;;12.30;8.68;;;;;;;16.85;72.42;100584.81;5045541;28;20033;-85
2022/05/19 01:51:34;;;;;;;14.10;6.88;;;;;;;16.85;71.12;100585.66;5032383;28;20045;-85
2022/05/19 01:54:13;;;;;;;10.00;5.72;;;;;;;16.85;70.50;100584.81;5031215;28;20087;-85
2022/05/19 01:56:47;;;;;;;7.22;5.43;;;;;;;16.78;70.86;100588.97;5045825;28;20038;-85
2022/05/19 01:59:45;;;;;;;6.65;4.63;;;;;;;16.76;70.65;100585.63;5028818;28;20033;-84
2022/05/19 02:02:15;;;;;;;9.25;6.03;;;;;;;16.74;70.25;100584.91;5029518;28;20040;-85
2022/05/19 02:04:49;;;;;;;18.45;7.25;;;;;;;16.65;70.08;100591.91;5031469;28;20021;-85
2022/05/19 02:07:18;;;;;;;29.73;9.35;;;;;;;16.45;70.31;100591.06;5030254;28;20124;-85
2022/05/19 02:09:53;;;;;;;37.65;12.43;;;;;;;16.35;71.27;100598.13;5031164;28;20029;-85
2022/05/19 02:12:19;;;;;;;83.05;13.45;;;;;;;16.34;70.28;100599.13;5031915;28;20396;-85
2022/05/19 02:14:52;;;;;;;23.50;11.52;;;;;;;16.28;70.17;100592.56;5030596;28;20033;-85
2022/05/19 02:17:21;;;;;;;18.63;9.18;;;;;;;16.04;70.70;100598.22;5031817;28;20032;-85
2022/05/19 02:19:54;;;;;;;11.80;6.70;;;;;;;16.13;70.41;100592.09;5029531;28;20502;-85
2022/05/19 02:22:22;;;;;;;15.15;6.68;;;;;;;15.90;71.17;100599.44;5030790;28;20086;-85
2022/05/19 02:24:56;;;;;;;8.98;4.82;;;;;;;16.09;70.53;100597.81;5029802;28;20375;-85
2022/05/19 02:28:10;;;;;;;8.88;5.68;;;;;;;15.99;70.72;100592.47;5031519;28;20025;-85
2022/05/19 02:30:38;;;;;;;7.07;5.18;;;;;;;16.04;71.08;100604.34;5027543;28;20763;-85
2022/05/19 02:33:04;;;;;;;11.73;6.07;;;;;;;15.89;70.57;100603.03;5023522;28;20038;-85
2022/05/19 02:35:30;;;;;;;7.47;4.82;;;;;;;15.85;71.10;100591.03;5031888;28;20380;-85
2022/05/19 02:37:57;;;;;;;10.27;5.43;;;;;;;15.94;70.39;100594.72;5029266;28;20471;-85
2022/05/19 02:40:25;;;;;;;9.02;5.85;;;;;;;15.92;71.00;100596.66;5027908;28;20536;-85
2022/05/19 02:42:51;;;;;;;12.40;5.53;;;;;;;15.97;71.07;100597.91;5031565;28;20034;-85
2022/05/19 02:45:18;;;;;;;11.48;5.50;;;;;;;15.90;72.01;100588.00;5029999;28;20027;-85
2022/05/19 02:47:44;;;;;;;11.68;6.80;;;;;;;15.99;71.42;100590.66;5029957;28;20383;-84
2022/05/19 02:50:11;;;;;;;10.18;5.63;;;;;;;16.08;71.31;100604.09;5032261;28;20033;-85
2022/05/19 02:52:36;;;;;;;8.80;6.28;;;;;;;16.08;70.88;100586.38;5035605;28;20025;-84
2022/05/19 02:55:02;;;;;;;11.13;5.65;;;;;;;16.10;70.57;100595.03;5033728;28;20391;-84
2022/05/19 02:57:27;;;;;;;11.40;6.07;;;;;;;16.06;70.48;100604.22;5035750;28;20448;-85
2022/05/19 02:59:53;;;;;;;13.90;6.78;;;;;;;16.06;70.60;100596.28;5031793;28;20116;-84
2022/05/19 03:02:19;;;;;;;8.45;5.45;;;;;;;16.05;69.84;100587.50;5031629;28;20029;-85
2022/05/19 03:04:44;;;;;;;15.65;6.40;;;;;;;15.75;70.78;100595.47;5035657;28;20030;-85
2022/05/19 03:07:09;;;;;;;10.02;6.50;;;;;;;15.86;70.35;100592.72;5034658;28;20025;-84
2022/05/19 03:09:35;;;;;;;15.30;7.43;;;;;;;15.88;69.90;100606.69;5033581;28;20041;-85
2022/05/19 03:12:01;;;;;;;11.13;7.13;;;;;;;15.90;70.11;100601.25;5034135;28;20022;-84
2022/05/19 03:14:26;;;;;;;65.28;10.75;;;;;;;15.86;70.73;100590.09;5032281;28;20589;-85
2022/05/19 03:16:51;;;;;;;18.33;8.27;;;;;;;16.02;69.80;100594.88;5033611;28;20446;-84
2022/05/19 03:19:17;;;;;;;20.58;9.45;;;;;;;16.04;69.53;100600.88;5035330;28;20022;-85
2022/05/19 03:21:42;;;;;;;10.77;7.93;;;;;;;15.95;69.81;100593.72;5034357;28;20026;-84
2022/05/19 03:24:09;;;;;;;17.58;8.40;;;;;;;15.91;70.08;100594.97;5033158;28;20029;-85
2022/05/19 03:26:35;;;;;;;19.30;8.50;;;;;;;15.91;69.63;100597.63;5033316;28;20029;-84
2022/05/19 03:29:00;;;;;;;14.23;7.30;;;;;;;15.75;70.50;100585.72;5045922;28;20032;-84
2022/05/19 03:31:26;;;;;;;34.78;8.02;;;;;;;15.76;70.07;100597.97;5033269;28;20521;-84
2022/05/19 03:33:52;;;;;;;57.10;8.57;;;;;;;15.81;69.50;100595.75;5035077;28;20052;-84
2022/05/19 03:36:17;;;;;;;7.93;6.43;;;;;;;15.81;69.68;100587.00;5034707;28;20033;-84
2022/05/19 03:38:42;;;;;;;11.02;6.53;;;;;;;15.76;69.80;100584.75;5032438;28;20498;-85
2022/05/19 03:41:08;;;;;;;238.13;11.25;;;;;;;15.40;70.41;100580.78;5032053;28;20034;-85
2022/05/19 03:43:34;;;;;;;135.23;9.40;;;;;;;15.43;70.63;100576.06;5032810;28;20099;-85
2022/05/19 03:46:03;;;;;;;24.98;6.40;;;;;;;15.37;71.10;100576.59;5033031;28;20057;-84
2022/05/19 03:48:36;;;;;;;26.38;5.75;;;;;;;15.40;70.71;100596.66;5034866;28;20017;-84
2022/05/19 03:51:04;;;;;;;24.08;6.78;;;;;;;15.35;71.17;100583.81;5032520;28;20066;-85
2022/05/19 03:53:30;;;;;;;133.38;11.25;;;;;;;15.42;71.48;100600.84;5034794;28;20109;-84
2022/05/19 03:55:55;;;;;;;51.28;8.05;;;;;;;15.31;70.89;100590.34;5031725;28;20048;-85
2022/05/19 03:58:21;;;;;;;29.95;7.25;;;;;;;14.97;72.14;100589.69;5032338;28;20471;-84
2022/05/19 04:00:46;;;;;;;68.20;6.43;;;;;;;15.12;72.08;100598.16;5030931;28;20025;-85
2022/05/19 04:03:12;;;;;;;111.47;9.70;;;;;;;15.18;70.91;100593.19;5032517;28;20036;-84
2022/05/19 04:05:37;;;;;;;35.22;6.57;;;;;;;15.15;70.37;100582.88;5033877;28;20029;-85
2022/05/19 04:08:03;;;;;;;127.55;12.40;;;;;;;15.04;70.03;100575.00;5032222;28;20022;-85
2022/05/19 04:10:29;;;;;;;23.35;8.90;;;;;;;15.29;70.94;100594.94;5031264;28;20590;-84
2022/05/19 04:12:54;;;;;;;24.27;11.75;;;;;;;15.26;70.90;100618.97;5033204;28;20110;-84
2022/05/19 04:15:19;;;;;;;22.10;9.95;;;;;;;15.31;70.12;100608.03;5032651;28;20396;-84
2022/05/19 04:17:45;;;;;;;34.08;10.98;;;;;;;15.18;70.37;100587.06;5034290;28;20491;-84
2022/05/19 04:20:10;;;;;;;21.90;8.88;;;;;;;15.11;69.91;100564.75;5032153;28;20476;-84
2022/05/19 04:22:36;;;;;;;13.82;6.40;;;;;;;14.98;72.01;100592.22;5034101;28;20025;-84
2022/05/19 04:25:02;;;;;;;7.82;4.05;;;;;;;15.16;70.88;100581.88;5031260;28;20033;-84
2022/05/19 04:27:29;;;;;;;6.65;4.00;;;;;;;15.19;70.55;100588.75;5034197;28;20026;-84
2022/05/19 04:29:55;;;;;;;9.70;4.93;;;;;;;15.08;70.58;100592.28;5030680;28;20037;-84
2022/05/19 04:32:20;;;;;;;10.00;5.18;;;;;;;15.14;70.33;100589.13;5033923;28;20108;-84
2022/05/19 04:34:45;;;;;;;7.95;4.43;;;;;;;14.96;69.82;100574.81;5033290;28;20256;-84
2022/05/19 04:37:11;;;;;;;8.80;3.88;;;;;;;15.17;70.22;100585.41;5033760;28;20025;-84
2022/05/19 04:39:37;;;;;;;8.30;5.07;;;;;;;15.23;69.81;100596.28;5030985;28;20042;-84
2022/05/19 04:42:11;;;;;;;8.48;4.80;;;;;;;15.33;69.33;100600.81;5046823;28;20032;-84
2022/05/19 04:44:37;;;;;;;12.40;5.80;;;;;;;15.43;69.72;100610.47;5031956;28;20037;-84
2022/05/19 04:47:03;;;;;;;18.40;7.05;;;;;;;15.49;69.58;100601.16;5033916;28;20033;-84
2022/05/19 04:49:28;;;;;;;12.00;5.32;;;;;;;15.55;69.08;100608.56;5032915;28;20080;-84
2022/05/19 04:51:54;;;;;;;8.32;5.40;;;;;;;15.57;70.05;100614.56;5032177;28;20280;-84
2022/05/19 04:54:19;;;;;;;9.27;5.95;;;;;;;15.56;69.52;100617.34;5029779;28;20449;-84
2022/05/19 04:56:44;;;;;;;7.82;4.57;;;;;;;15.56;69.76;100604.09;5030236;28;20041;-84
2022/05/19 04:59:14;;;;;;;6.78;4.78;;;;;;;15.61;69.94;100623.09;5032343;28;20101;-84
2022/05/19 05:01:44;;;;;;;9.18;4.88;;;;;;;15.67;69.50;100623.41;5027755;28;20079;-84
2022/05/19 05:04:10;;;;;;;8.52;5.10;;;;;;;15.76;69.90;100626.28;5021160;28;20553;-84
2022/05/19 05:06:35;;;;;;;9.73;5.28;;;;;;;15.95;69.83;100625.50;5033384;28;20029;-84
2022/05/19 05:09:01;;;;;;;13.23;5.57;;;;;;;15.92;70.77;100626.63;5030480;28;20067;-84
2022/05/19 05:11:27;;;;;;;9.25;5.22;;;;;;;15.97;70.71;100637.63;5033128;28;20490;-84
2022/05/19 05:13:52;;;;;;;7.07;3.92;;;;;;;15.83;69.87;100630.06;5032897;28;20104;-84
2022/05/19 05:16:17;;;;;;;13.25;4.78;;;;;;;15.97;69.05;100628.84;5031490;28;20056;-84
2022/05/19 05:18:43;;;;;;;8.88;4.88;;;;;;;16.19;68.48;100641.06;5032640;28;20029;-84
2022/05/19 05:21:11;;;;;;;8.18;4.78;;;;;;;16.31;69.26;100634.69;5028322;28;20030;-84
2022/05/19 05:23:37;;;;;;;9.70;5.00;;;;;;;16.28;69.17;100645.56;5029593;28;20530;-85
2022/05/19 05:26:03;;;;;;;8.32;4.93;;;;;;;16.34;69.19;100652.13;5030592;28;20034;-85
2022/05/19 05:28:30;;;;;;;10.45;5.72;;;;;;;16.31;68.92;100655.03;5027816;28;20021;-84
2022/05/19 05:30:55;;;;;;;13.43;6.50;;;;;;;16.50;69.49;100692.19;5027481;28;20024;-83
2022/05/19 05:33:21;;;;;;;10.15;6.22;;;;;;;16.51;69.04;100695.66;5027931;28;20029;-84
2022/05/19 05:35:46;;;;;;;9.82;5.22;;;;;;;16.53;68.98;100688.41;5028516;28;20036;-85
2022/05/19 05:38:11;;;;;;;10.25;6.03;;;;;;;16.72;68.94;100692.94;5028104;28;20029;-84
2022/05/19 05:40:37;;;;;;;10.25;6.25;;;;;;;16.87;68.88;100696.91;5030174;28;20052;-85
2022/05/19 05:43:16;;;;;;;10.30;5.88;;;;;;;17.02;68.50;100692.00;5030516;28;20034;-85
2022/05/19 05:45:42;;;;;;;10.30;5.90;;;;;;;17.03;68.50;100699.00;5030407;28;20025;-85
2022/05/19 05:48:08;;;;;;;11.07;6.43;;;;;;;17.20;68.05;100689.50;5030122;28;20017;-84
2022/05/19 05:50:34;;;;;;;13.65;7.63;;;;;;;17.20;67.84;100700.09;5043572;28;20022;-85
2022/05/19 05:52:59;;;;;;;10.05;5.70;;;;;;;17.30;67.56;100692.16;5030326;28;20388;-85
2022/05/19 05:55:25;;;;;;;9.60;5.40;;;;;;;17.48;67.86;100698.44;5029921;28;20029;-85
2022/05/19 05:57:50;;;;;;;15.57;5.85;;;;;;;17.56;67.13;100693.25;5031146;28;20029;-85
2022/05/19 06:00:16;;;;;;;10.32;5.85;;;;;;;17.69;67.36;100694.75;5028705;28;20030;-85
2022/05/19 06:02:42;;;;;;;6.82;5.10;;;;;;;17.75;66.80;100704.78;5030263;28;20112;-84
2022/05/19 06:05:08;;;;;;;9.63;5.53;;;;;;;17.86;66.67;100679.94;5045560;28;20017;-85
2022/05/19 06:07:33;;;;;;;11.57;5.97;;;;;;;17.75;66.77;100688.84;5032050;28;20025;-84
2022/05/19 06:09:58;;;;;;;10.77;5.82;;;;;;;17.69;66.39;100708.84;5030098;28;20364;-84
2022/05/19 06:12:25;;;;;;;10.75;5.97;;;;;;;17.89;66.15;100695.56;5031615;28;20033;-84
2022/05/19 06:14:53;;;;;;;12.80;6.07;;;;;;;17.88;66.01;100677.97;5029627;28;20021;-86
2022/05/19 06:17:19;;;;;;;9.15;4.80;;;;;;;18.04;66.05;100672.84;5031915;28;20053;-85
2022/05/19 06:19:45;;;;;;;10.13;4.63;;;;;;;18.36;65.23;100708.78;5029503;28;20032;-83
2022/05/19 06:22:10;;;;;;;9.23;5.15;;;;;;;18.43;65.59;100716.03;5031852;28;20033;-83
2022/05/19 06:24:36;;;;;;;9.05;4.88;;;;;;;18.50;64.67;100726.09;5028508;28;20033;-85
2022/05/19 06:27:02;;;;;;;8.40;4.75;;;;;;;18.32;64.41;100736.66;5031778;28;20553;-85
2022/05/19 06:29:27;;;;;;;8.05;4.05;;;;;;;18.46;65.08;100746.81;5027342;28;20061;-87
2022/05/19 06:31:53;;;;;;;9.35;4.10;;;;;;;18.34;65.08;100745.31;5025408;28;20128;-87
2022/05/19 06:34:18;;;;;;;13.77;4.30;;;;;;;18.51;64.49;100746.38;5024962;28;20087;-86
2022/05/19 06:36:44;;;;;;;8.82;4.57;;;;;;;18.60;64.89;100756.97;5026809;28;20443;-91
2022/05/19 06:39:09;;;;;;;11.32;3.88;;;;;;;19.07;64.04;100731.22;5024224;28;20076;-87
2022/05/19 06:44:19;;;;;;;18.15;4.07;;;;;;;20.35;61.33;100748.47;5024077;28;20048;-86
2022/05/19 06:46:46;;;;;;;17.77;3.40;;;;;;;22.68;54.42;100719.56;5024643;28;20045;-86
2022/05/19 06:49:11;;;;;;;15.68;4.25;;;;;;;24.34;49.09;100736.78;5024880;28;20573;-86
2022/05/19 06:51:37;;;;;;;13.00;3.78;;;;;;;24.24;50.02;100730.84;5026821;28;20037;-87
2022/05/19 06:54:03;;;;;;;13.55;3.00;;;;;;;23.03;52.52;100740.66;5027856;28;20029;-87
2022/05/19 06:56:29;;;;;;;13.60;2.90;;;;;;;22.56;52.53;100743.22;5032156;28;20037;-87
2022/05/19 06:58:54;;;;;;;9.68;2.47;;;;;;;22.05;54.91;100750.72;5035209;28;20047;-86
2022/05/19 07:01:20;;;;;;;17.73;3.40;;;;;;;21.81;55.35;100754.28;5031145;28;20056;-86
2022/05/19 07:03:45;;;;;;;18.45;3.75;;;;;;;21.05;57.83;100758.06;5032734;28;20087;-86
2022/05/19 07:06:11;;;;;;;19.80;3.60;;;;;;;21.23;57.21;100739.22;5031824;28;20022;-87
2022/05/19 07:08:38;;;;;;;12.93;2.90;;;;;;;21.32;57.03;100732.91;5032850;28;20084;-86
2022/05/19 07:11:04;;;;;;;13.27;3.22;;;;;;;21.98;55.43;100733.72;5046202;28;20025;-85
2022/05/19 07:13:31;;;;;;;16.23;3.00;;;;;;;23.68;50.95;100737.44;5030686;28;20036;-87
2022/05/19 07:15:56;;;;;;;14.50;3.67;;;;;;;24.70;48.77;100718.06;5031433;28;20108;-86
2022/05/19 07:18:22;;;;;;;20.88;3.13;;;;;;;28.11;42.51;100706.09;5029883;28;20101;-86
2022/05/19 07:20:48;;;;;;;13.05;3.08;;;;;;;27.69;42.03;100726.06;5029072;28;20083;-86
2022/05/19 07:23:28;;;;;;;15.85;2.80;;;;;;;30.38;38.63;100673.53;5031874;28;20431;-86
2022/05/19 07:25:54;;;;;;;12.23;3.40;;;;;;;31.65;36.35;100687.84;5029150;28;20032;-87
2022/05/19 07:28:20;;;;;;;16.20;3.95;;;;;;;31.02;36.89;100728.13;5026943;28;20479;-87
2022/05/19 07:30:46;;;;;;;16.10;3.50;;;;;;;30.35;38.09;100755.28;5027518;28;20040;-86
2022/05/19 07:33:12;;;;;;;17.35;3.10;;;;;;;27.45;42.26;100800.34;5030613;28;20022;-86
2022/05/19 07:35:39;;;;;;;16.30;4.43;;;;;;;25.75;44.90;100809.00;5032394;28;20476;-86
2022/05/19 07:38:05;;;;;;;10.10;2.47;;;;;;;24.91;47.90;100824.66;5034025;28;20025;-86
2022/05/19 07:40:31;;;;;;;14.27;3.53;;;;;;;27.02;43.02;100772.88;5032989;28;20461;-86
2022/05/19 07:43:35;;;;;;;20.20;4.45;;;;;;;27.63;41.06;100794.34;5035069;28;20087;-86
2022/05/19 07:45:42;;;;;;;11.80;2.85;;;;;;;26.84;43.38;100787.75;5033635;28;20033;-86
2022/05/19 07:48:07;;;;;;;15.60;3.42;;;;;;;26.57;44.28;100785.97;5031476;28;20589;-86
2022/05/19 07:50:33;;;;;;;14.73;2.95;;;;;;;25.43;44.77;100793.19;5035916;28;20029;-85
2022/05/19 07:52:58;;;;;;;10.25;2.35;;;;;;;25.13;46.92;100792.47;5033596;28;20033;-86
2022/05/19 07:55:24;;;;;;;14.07;3.00;;;;;;;24.19;48.70;100808.38;5031580;28;20476;-86
2022/05/19 07:57:49;;;;;;;18.10;3.00;;;;;;;23.75;50.01;100817.97;5035105;28;20025;-86
2022/05/19 08:00:15;;;;;;;14.93;3.13;;;;;;;22.95;52.16;100825.34;5033191;28;20498;-86
2022/05/19 08:02:40;;;;;;;13.95;2.55;;;;;;;22.94;52.56;100820.16;5033470;28;20065;-86
2022/05/19 08:05:06;;;;;;;17.60;3.47;;;;;;;22.33;53.29;100827.91;5034633;28;20040;-86
2022/05/19 08:07:32;;;;;;;17.95;3.17;;;;;;;21.91;53.15;100823.63;5033662;28;20031;-85
2022/05/19 08:15:37;;;;;;;15.68;3.15;;;;;;;21.48;56.04;100817.59;5032855;28;20505;-86
2022/05/19 08:18:15;;;;;;;12.57;2.25;;;;;;;21.24;56.96;100837.88;5047497;28;20522;-86
2022/05/19 08:20:44;;;;;;;16.50;3.10;;;;;;;21.50;56.63;100847.66;5032733;28;20047;-86
2022/05/19 08:23:14;;;;;;;19.58;4.03;;;;;;;21.83;56.02;100837.81;5032685;28;20025;-86
2022/05/19 08:25:40;;;;;;;21.55;2.88;;;;;;;22.92;54.04;100846.28;5032639;28;20034;-86
2022/05/19 08:28:06;;;;;;;17.00;3.15;;;;;;;23.13;53.50;100845.72;5032232;28;20032;-85
2022/05/19 08:30:32;;;;;;;15.27;2.33;;;;;;;23.16;52.34;100851.56;5030812;28;20083;-86
2022/05/19 08:32:58;;;;;;;13.40;2.88;;;;;;;22.87;53.51;100862.88;5032300;28;20030;-85
2022/05/19 08:35:24;;;;;;;18.17;2.70;;;;;;;22.15;53.79;100866.34;5032587;28;20022;-86
2022/05/19 08:37:50;;;;;;;19.45;3.15;;;;;;;22.40;53.65;100863.69;5029875;28;20017;-85
2022/05/19 08:40:18;;;;;;;18.95;3.05;;;;;;;22.65;53.69;100863.63;5031911;28;20025;-85
2022/05/19 08:42:49;;;;;;;18.00;2.85;;;;;;;21.45;54.60;100855.34;5032395;28;20044;-85
2022/05/19 08:45:37;;;;;;;14.30;2.38;;;;;;;21.59;55.23;100836.81;5039724;28;20479;-85
2022/05/19 08:48:13;;;;;;;15.63;2.97;;;;;;;21.74;55.47;100817.44;5022670;28;20034;-84
2022/05/19 08:50:49;;;;;;;19.17;3.78;;;;;;;22.97;51.46;100823.34;5032755;28;20037;-85
2022/05/19 08:53:15;;;;;;;19.58;3.47;;;;;;;23.51;51.51;100827.06;5033439;28;20467;-84
2022/05/19 08:55:45;;;;;;;16.40;2.90;;;;;;;25.39;46.92;100823.34;5031481;28;20033;-87
2022/05/19 08:58:35;;;;;;;21.00;3.20;;;;;;;26.43;44.28;100826.28;5032160;28;20373;-85
2022/05/19 09:01:10;;;;;;;18.77;3.33;;;;;;;26.88;42.80;100817.81;5032648;28;20056;-85
2022/05/19 09:03:46;;;;;;;19.63;3.35;;;;;;;30.14;39.09;100807.97;5026711;28;20120;-86
2022/05/19 09:06:17;;;;;;;15.35;3.17;;;;;;;30.82;35.79;100825.13;5032513;28;20018;-86
2022/05/19 09:09:05;;;;;;;9.95;2.15;;;;;;;32.21;34.41;100832.25;5027616;28;20060;-86
2022/05/19 09:11:56;;;;;;;13.30;2.28;;;;;;;30.93;35.17;100832.53;5032612;28;20029;-86
2022/05/19 09:14:28;;;;;;;9.65;2.65;;;;;;;28.94;36.55;100840.44;5033438;28;20022;-86
2022/05/19 09:17:00;;;;;;;15.75;3.08;;;;;;;30.76;34.78;100828.75;5032844;28;20559;-86
2022/05/19 09:19:38;;;;;;;13.45;2.47;;;;;;;32.26;33.04;100845.94;5032968;28;20460;-86
2022/05/19 09:22:05;;;;;;;12.77;2.58;;;;;;;29.34;36.97;100842.94;5048154;28;20480;-86
2022/05/19 09:24:32;;;;;;;11.05;2.00;;;;;;;29.61;36.15;100855.25;5030101;28;20025;-86
2022/05/19 09:26:58;;;;;;;14.05;2.90;;;;;;;28.00;38.30;100853.31;5032715;28;20035;-86
2022/05/19 09:29:33;;;;;;;11.48;2.35;;;;;;;30.20;36.15;100844.97;5032765;28;20025;-86
2022/05/19 09:32:10;;;;;;;13.55;1.95;;;;;;;32.08;34.15;100840.63;5032692;28;20120;-86
2022/05/19 09:34:36;;;;;;;11.63;2.20;;;;;;;33.27;32.18;100828.41;5032750;28;20037;-86
2022/05/19 09:37:07;;;;;;;10.98;2.10;;;;;;;34.53;30.85;100829.81;5032648;28;20037;-86
2022/05/19 09:39:35;;;;;;;;;;;;;;;33.54;28.92;100834.88;5029117;28;20101;-86
2022/05/19 09:42:08;;;;;;;10.07;2.22;;;;;;;34.80;28.11;100848.16;5012916;28;20003;-86
2022/05/19 09:44:42;;;;;;;12.00;2.22;;;;;;;33.81;29.39;100858.78;5013064;28;20022;-86
2022/05/19 09:47:33;;;;;;;13.38;2.25;;;;;;;34.12;31.42;100857.31;5012975;28;20044;-84
2022/05/19 09:50:10;;;;;;;14.07;1.92;;;;;;;34.05;29.05;100861.31;5012194;28;20554;-87
2022/05/19 09:52:40;;;;;;;11.35;2.35;;;;;;;32.73;32.05;100864.91;5012378;28;20045;-86
2022/05/19 09:55:08;;;;;;;8.40;2.20;;;;;;;32.39;31.16;100864.69;5013610;28;20033;-86
2022/05/19 09:57:38;;;;;;;11.43;2.10;;;;;;;31.59;32.75;100874.19;5015330;28;20033;-85
2022/05/19 10:00:09;;;;;;;6.95;1.50;;;;;;;29.99;34.33;100878.69;5031419;28;20502;-85
2022/05/19 10:02:38;;;;;;;6.35;1.60;;;;;;;30.33;34.16;100881.97;5046787;28;20033;-85
2022/05/19 10:05:21;;;;;;;9.27;2.10;;;;;;;30.97;31.90;100871.69;5032369;28;20101;-85
2022/05/19 10:07:50;;;;;;;9.57;1.85;;;;;;;29.11;35.76;100879.44;5031991;28;20044;-90
2022/05/19 10:10:25;;;;;;;8.20;1.92;;;;;;;28.44;36.06;100873.41;5034960;28;20029;-84
2022/05/19 10:12:56;;;;;;;8.48;2.25;;;;;;;29.14;37.17;100889.84;5019458;28;20030;-86
2022/05/19 10:15:26;;;;;;;9.52;1.63;;;;;;;30.53;31.77;100878.22;5031780;28;20103;-85
2022/05/19 10:18:25;;;;;;;8.10;1.88;;;;;;;31.88;31.63;100879.78;5031717;28;20064;-85
2022/05/19 10:21:06;;;;;;;12.43;2.05;;;;;;;31.51;32.17;100881.84;5031972;28;20033;-85
2022/05/19 10:24:02;;;;;;;7.38;1.67;;;;;;;32.31;29.67;100880.56;5031852;28;20033;-87
2022/05/19 10:31:02;;;;;;;7.30;2.28;;;;;;;32.78;29.96;100881.34;5012104;28;20113;-87
2022/05/19 10:33:07;;;;;;;9.20;2.00;;;;;;;31.18;33.91;100883.09;5030620;28;20060;-85
2022/05/19 10:35:44;;;;;;;5.38;1.25;;;;;;;29.66;36.17;100889.75;5026234;28;20024;-86
2022/05/19 10:38:12;;;;;;;8.10;1.58;;;;;;;29.73;34.68;100887.03;5010971;28;20113;-85
2022/05/19 10:41:10;;;;;;;18.67;2.95;;;;;;;27.66;39.75;100893.72;5030147;28;20029;-85
2022/05/19 10:43:50;;;;;;;11.70;1.83;;;;;;;26.25;40.83;100890.56;5031593;28;20029;-85
2022/05/19 10:46:20;;;;;;;9.85;1.67;;;;;;;28.25;39.01;100885.91;5030100;28;20033;-85
2022/05/19 10:48:57;;;;;;;10.48;1.73;;;;;;;27.89;38.93;100884.47;5030550;28;20021;-85
2022/05/19 10:51:41;;;;;;;7.97;1.67;;;;;;;29.60;37.12;100877.09;5031432;28;20040;-85
2022/05/19 10:54:34;;;;;;;15.77;2.17;;;;;;;29.42;36.71;100875.13;5046929;28;20041;-85
2022/05/19 10:57:31;;;;;;;7.68;1.77;;;;;;;29.93;35.35;100870.66;5033001;28;20041;-86
2022/05/19 11:00:18;;;;;;;9.68;1.83;;;;;;;29.51;34.18;100878.44;5031454;28;20021;-86
2022/05/19 11:03:06;;;;;;;10.73;1.55;;;;;;;30.71;34.41;100875.53;5028099;28;20030;-86
2022/05/19 11:05:37;;;;;;;8.23;1.60;;;;;;;31.13;31.83;100880.25;5010705;28;20050;-86
2022/05/19 11:08:19;;;;;;;7.53;1.45;;;;;;;30.35;34.36;100874.47;5027462;28;20655;-86
2022/05/19 11:11:06;;;;;;;8.02;1.73;;;;;;;29.85;34.23;100885.28;5012403;28;20579;-87
2022/05/19 11:13:56;;;;;;;7.55;1.30;;;;;;;27.24;37.87;100889.50;5024787;28;20033;-86
2022/05/19 11:16:33;;;;;;;6.05;1.58;;;;;;;27.87;38.46;100884.66;5024015;28;20030;-86
2022/05/19 11:19:23;;;;;;;8.13;1.50;;;;;;;28.94;38.77;100884.50;5018389;28;20109;-87
2022/05/19 11:22:09;;;;;;;8.30;1.73;;;;;;;29.76;35.57;100879.31;5030458;28;20030;-86
2022/05/19 11:27:38;;;;;;;6.47;1.10;;;;;;;28.59;33.53;100867.78;5030412;28;20079;-87
2022/05/19 11:30:16;;;;;;;5.93;1.30;;;;;;;28.86;35.72;100863.94;5034530;28;20076;-86
2022/05/19 11:32:42;;;;;;;5.30;1.23;;;;;;;29.05;35.11;100858.69;5028218;28;20033;-86
2022/05/19 11:35:30;;;;;;;10.65;1.67;;;;;;;29.60;34.13;100866.28;5020509;28;20372;-86
2022/05/19 11:37:59;;;;;;;10.00;2.10;;;;;;;28.06;37.47;100869.50;5034546;28;20048;-86
2022/05/19 11:41:00;;;;;;;9.75;1.95;;;;;;;28.47;35.56;100863.00;5033599;28;20029;-88
2022/05/19 11:43:48;;;;;;;6.72;1.98;;;;;;;29.26;33.64;100863.78;5033030;28;20376;-86
2022/05/19 11:46:38;;;;;;;5.75;1.52;;;;;;;29.03;34.76;100858.06;5021460;28;20103;-86
2022/05/19 11:55:16;;;;;;;23.60;2.58;;;;;;;29.11;34.75;100857.81;5015266;28;20060;-86
2022/05/19 11:57:56;;;;;;;8.82;1.80;;;;;;;28.28;35.73;100853.09;5028945;28;20484;-86